sensor_id;sensor_type;location;lat;lon;timestamp;temperature;humidity
15386;DHT22;7791;47.246;9.648;2023-06-24T00:01:28;14.10;99.90
15386;DHT22;7791;47.246;9.648;2023-06-24T00:04:18;14.10;99.90
15386;DHT22;7791;47.246;9.648;2023-06-24T00:07:04;14.10;99.90
15386;DHT22;7791;47.246;9.648;2023-06-24T00:09:39;14.10;99.90
15386;DHT22;7791;47.246;9.648;2023-06-24T00:15:07;14.20;99.90
15386;DHT22;7791;47.246;9.648;2023-06-24T00:17:40;14.20;99.90
15386;DHT22;7791;47.246;9.648;2023-06-24T00:20:10;14.10;99.90
15386;DHT22;7791;47.246;9.648;2023-06-24T00:22:44;14.00;99.90
15386;DHT22;7791;47.246;9.648;2023-06-24T00:25:30;14.00;99.90
15386;DHT22;7791;47.246;9.648;2023-06-24T00:28:17;14.00;99.90
15386;DHT22;7791;47.246;9.648;2023-06-24T00:30:50;13.90;99.90
15386;DHT22;7791;47.246;9.648;2023-06-24T00:33:34;13.90;99.90
15386;DHT22;7791;47.246;9.648;2023-06-24T00:36:06;13.80;99.90
15386;DHT22;7791;47.246;9.648;2023-06-24T00:38:52;13.70;99.90
15386;DHT22;7791;47.246;9.648;2023-06-24T00:41:40;13.70;99.90
15386;DHT22;7791;47.246;9.648;2023-06-24T00:44:21;13.70;99.90
15386;DHT22;7791;47.246;9.648;2023-06-24T00:46:57;13.60;99.90
15386;DHT22;7791;47.246;9.648;2023-06-24T00:49:33;13.70;99.90
15386;DHT22;7791;47.246;9.648;2023-06-24T00:52:09;13.60;99.90
15386;DHT22;7791;47.246;9.648;2023-06-24T00:54:54;13.70;99.90
15386;DHT22;7791;47.246;9.648;2023-06-24T00:57:21;13.80;99.90
15386;DHT22;7791;47.246;9.648;2023-06-24T00:59:47;13.90;99.90
15386;DHT22;7791;47.246;9.648;2023-06-24T01:02:45;13.90;99.90
15386;DHT22;7791;47.246;9.648;2023-06-24T01:08:08;13.60;99.90
15386;DHT22;7791;47.246;9.648;2023-06-24T01:10:40;13.60;99.90
15386;DHT22;7791;47.246;9.648;2023-06-24T01:13:20;13.50;99.90
15386;DHT22;7791;47.246;9.648;2023-06-24T01:19:00;13.40;99.90
15386;DHT22;7791;47.246;9.648;2023-06-24T01:24:54;13.50;99.90
15386;DHT22;7791;47.246;9.648;2023-06-24T01:30:53;13.50;99.90
15386;DHT22;7791;47.246;9.648;2023-06-24T01:33:38;13.50;99.90
15386;DHT22;7791;47.246;9.648;2023-06-24T01:39:12;13.40;99.90
15386;DHT22;7791;47.246;9.648;2023-06-24T01:41:59;13.40;99.90
15386;DHT22;7791;47.246;9.648;2023-06-24T01:44:39;13.40;99.90
15386;DHT22;7791;47.246;9.648;2023-06-24T01:47:11;13.50;99.90
15386;DHT22;7791;47.246;9.648;2023-06-24T01:52:51;13.50;99.90
15386;DHT22;7791;47.246;9.648;2023-06-24T01:55:32;13.40;99.90
15386;DHT22;7791;47.246;9.648;2023-06-24T01:58:04;13.30;99.90
15386;DHT22;7791;47.246;9.648;2023-06-24T02:00:51;13.30;99.90
15386;DHT22;7791;47.246;9.648;2023-06-24T02:03:30;13.30;99.90
15386;DHT22;7791;47.246;9.648;2023-06-24T02:06:10;13.30;99.90
15386;DHT22;7791;47.246;9.648;2023-06-24T02:08:44;13.40;99.90
15386;DHT22;7791;47.246;9.648;2023-06-24T02:11:19;13.30;99.90
15386;DHT22;7791;47.246;9.648;2023-06-24T02:14:09;13.40;99.90
15386;DHT22;7791;47.246;9.648;2023-06-24T02:17:01;13.30;99.90
15386;DHT22;7791;47.246;9.648;2023-06-24T02:19:51;13.40;99.90
15386;DHT22;7791;47.246;9.648;2023-06-24T02:22:32;13.40;99.90
15386;DHT22;7791;47.246;9.648;2023-06-24T02:25:09;13.40;99.90
15386;DHT22;7791;47.246;9.648;2023-06-24T02:28:10;13.40;99.90
15386;DHT22;7791;47.246;9.648;2023-06-24T02:30:52;13.40;99.90
15386;DHT22;7791;47.246;9.648;2023-06-24T02:33:26;13.30;99.90
15386;DHT22;7791;47.246;9.648;2023-06-24T02:36:06;13.40;99.90
15386;DHT22;7791;47.246;9.648;2023-06-24T02:38:39;13.40;99.90
15386;DHT22;7791;47.246;9.648;2023-06-24T02:41:14;13.20;99.90
15386;DHT22;7791;47.246;9.648;2023-06-24T02:43:56;13.00;99.90
15386;DHT22;7791;47.246;9.648;2023-06-24T02:46:32;13.10;99.90
15386;DHT22;7791;47.246;9.648;2023-06-24T02:52:06;13.20;99.90
15386;DHT22;7791;47.246;9.648;2023-06-24T02:54:54;13.20;99.90
15386;DHT22;7791;47.246;9.648;2023-06-24T03:00:23;13.20;99.90
15386;DHT22;7791;47.246;9.648;2023-06-24T03:03:05;13.20;99.90
15386;DHT22;7791;47.246;9.648;2023-06-24T03:05:46;13.20;99.90
15386;DHT22;7791;47.246;9.648;2023-06-24T03:08:38;13.20;99.90
15386;DHT22;7791;47.246;9.648;2023-06-24T03:11:21;13.20;99.90
15386;DHT22;7791;47.246;9.648;2023-06-24T03:14:13;13.20;99.90
15386;DHT22;7791;47.246;9.648;2023-06-24T03:16:48;13.30;99.90
15386;DHT22;7791;47.246;9.648;2023-06-24T03:19:18;13.30;99.90
15386;DHT22;7791;47.246;9.648;2023-06-24T03:21:56;13.30;99.90
15386;DHT22;7791;47.246;9.648;2023-06-24T03:24:42;13.30;99.90
15386;DHT22;7791;47.246;9.648;2023-06-24T03:27:25;13.30;99.90
15386;DHT22;7791;47.246;9.648;2023-06-24T03:30:00;13.40;99.90
15386;DHT22;7791;47.246;9.648;2023-06-24T03:32:35;13.50;99.90
15386;DHT22;7791;47.246;9.648;2023-06-24T03:35:03;13.70;99.90
15386;DHT22;7791;47.246;9.648;2023-06-24T03:37:43;13.80;99.90
15386;DHT22;7791;47.246;9.648;2023-06-24T03:40:22;14.00;99.90
15386;DHT22;7791;47.246;9.648;2023-06-24T03:42:57;14.00;99.90
15386;DHT22;7791;47.246;9.648;2023-06-24T03:45:33;14.10;99.90
15386;DHT22;7791;47.246;9.648;2023-06-24T03:48:06;14.30;99.90
15386;DHT22;7791;47.246;9.648;2023-06-24T03:50:34;14.60;99.90
15386;DHT22;7791;47.246;9.648;2023-06-24T03:53:07;14.90;99.90
15386;DHT22;7791;47.246;9.648;2023-06-24T03:55:46;15.10;99.90
15386;DHT22;7791;47.246;9.648;2023-06-24T03:58:31;15.30;99.90
15386;DHT22;7791;47.246;9.648;2023-06-24T04:01:08;15.40;99.90
15386;DHT22;7791;47.246;9.648;2023-06-24T04:03:47;15.50;99.90
15386;DHT22;7791;47.246;9.648;2023-06-24T04:06:19;15.60;99.90
15386;DHT22;7791;47.246;9.648;2023-06-24T04:09:00;15.60;99.90
15386;DHT22;7791;47.246;9.648;2023-06-24T04:11:52;15.40;99.90
15386;DHT22;7791;47.246;9.648;2023-06-24T04:14:34;15.30;99.90
15386;DHT22;7791;47.246;9.648;2023-06-24T04:17:12;15.30;99.90
15386;DHT22;7791;47.246;9.648;2023-06-24T04:19:47;15.20;99.90
15386;DHT22;7791;47.246;9.648;2023-06-24T04:22:15;14.80;99.90
15386;DHT22;7791;47.246;9.648;2023-06-24T04:30:17;15.10;99.90
15386;DHT22;7791;47.246;9.648;2023-06-24T04:32:51;15.40;99.90
15386;DHT22;7791;47.246;9.648;2023-06-24T04:35:35;15.50;99.90
15386;DHT22;7791;47.246;9.648;2023-06-24T04:38:08;15.60;99.90
15386;DHT22;7791;47.246;9.648;2023-06-24T04:40:40;15.80;99.90
15386;DHT22;7791;47.246;9.648;2023-06-24T04:43:19;15.90;99.90
15386;DHT22;7791;47.246;9.648;2023-06-24T04:48:36;15.90;99.90
15386;DHT22;7791;47.246;9.648;2023-06-24T04:51:20;15.90;99.90
15386;DHT22;7791;47.246;9.648;2023-06-24T04:54:02;16.00;99.90
15386;DHT22;7791;47.246;9.648;2023-06-24T04:56:40;15.90;99.90
15386;DHT22;7791;47.246;9.648;2023-06-24T04:59:19;15.80;99.90
15386;DHT22;7791;47.246;9.648;2023-06-24T05:01:57;15.90;99.90
15386;DHT22;7791;47.246;9.648;2023-06-24T05:04:44;16.10;99.90
15386;DHT22;7791;47.246;9.648;2023-06-24T05:10:14;16.40;99.90
15386;DHT22;7791;47.246;9.648;2023-06-24T05:12:57;16.60;99.90
15386;DHT22;7791;47.246;9.648;2023-06-24T05:15:45;16.60;99.90
15386;DHT22;7791;47.246;9.648;2023-06-24T05:18:18;16.50;99.90
15386;DHT22;7791;47.246;9.648;2023-06-24T05:20:57;16.40;99.90
15386;DHT22;7791;47.246;9.648;2023-06-24T05:23:39;16.40;99.90
15386;DHT22;7791;47.246;9.648;2023-06-24T05:29:09;16.80;99.90
15386;DHT22;7791;47.246;9.648;2023-06-24T05:31:47;17.10;99.90
15386;DHT22;7791;47.246;9.648;2023-06-24T05:34:28;17.40;99.90
15386;DHT22;7791;47.246;9.648;2023-06-24T05:37:19;17.50;99.90
15386;DHT22;7791;47.246;9.648;2023-06-24T05:39:58;17.70;99.90
15386;DHT22;7791;47.246;9.648;2023-06-24T05:42:43;18.00;99.90
15386;DHT22;7791;47.246;9.648;2023-06-24T05:50:59;18.70;99.90
15386;DHT22;7791;47.246;9.648;2023-06-24T06:01:54;19.20;99.90
15386;DHT22;7791;47.246;9.648;2023-06-24T06:04:39;19.20;99.90
15386;DHT22;7791;47.246;9.648;2023-06-24T06:07:14;19.30;99.90
15386;DHT22;7791;47.246;9.648;2023-06-24T06:09:55;19.40;99.90
15386;DHT22;7791;47.246;9.648;2023-06-24T06:12:32;19.50;99.90
15386;DHT22;7791;47.246;9.648;2023-06-24T06:15:01;19.60;99.90
15386;DHT22;7791;47.246;9.648;2023-06-24T06:17:48;19.60;99.90
15386;DHT22;7791;47.246;9.648;2023-06-24T06:20:21;19.80;99.90
15386;DHT22;7791;47.246;9.648;2023-06-24T06:22:58;19.90;99.90
15386;DHT22;7791;47.246;9.648;2023-06-24T06:25:30;20.00;99.90
15386;DHT22;7791;47.246;9.648;2023-06-24T06:28:08;20.10;99.90
15386;DHT22;7791;47.246;9.648;2023-06-24T06:30:48;20.20;99.90
15386;DHT22;7791;47.246;9.648;2023-06-24T06:33:38;20.30;99.90
15386;DHT22;7791;47.246;9.648;2023-06-24T06:36:33;20.30;99.90
15386;DHT22;7791;47.246;9.648;2023-06-24T06:39:28;20.30;99.90
15386;DHT22;7791;47.246;9.648;2023-06-24T06:42:08;20.50;99.90
15386;DHT22;7791;47.246;9.648;2023-06-24T06:44:44;20.60;99.90
15386;DHT22;7791;47.246;9.648;2023-06-24T06:50:07;20.70;99.90
15386;DHT22;7791;47.246;9.648;2023-06-24T06:52:46;20.80;99.90
15386;DHT22;7791;47.246;9.648;2023-06-24T06:58:27;20.90;99.90
15386;DHT22;7791;47.246;9.648;2023-06-24T07:01:15;21.20;99.90
15386;DHT22;7791;47.246;9.648;2023-06-24T07:03:51;21.30;99.90
15386;DHT22;7791;47.246;9.648;2023-06-24T07:06:38;21.50;99.90
15386;DHT22;7791;47.246;9.648;2023-06-24T07:09:15;21.70;99.90
15386;DHT22;7791;47.246;9.648;2023-06-24T07:11:47;21.80;99.90
15386;DHT22;7791;47.246;9.648;2023-06-24T07:14:23;21.90;99.90
15386;DHT22;7791;47.246;9.648;2023-06-24T07:17:07;21.90;99.90
15386;DHT22;7791;47.246;9.648;2023-06-24T07:19:43;21.90;99.90
15386;DHT22;7791;47.246;9.648;2023-06-24T07:22:22;21.90;99.90
15386;DHT22;7791;47.246;9.648;2023-06-24T07:25:10;22.10;99.90
15386;DHT22;7791;47.246;9.648;2023-06-24T07:27:49;22.10;99.90
15386;DHT22;7791;47.246;9.648;2023-06-24T07:30:34;22.00;99.90
15386;DHT22;7791;47.246;9.648;2023-06-24T07:33:07;22.70;99.90
15386;DHT22;7791;47.246;9.648;2023-06-24T07:35:48;22.70;99.90
15386;DHT22;7791;47.246;9.648;2023-06-24T07:39:16;22.90;99.90
15386;DHT22;7791;47.246;9.648;2023-06-24T07:41:45;23.60;99.90
15386;DHT22;7791;47.246;9.648;2023-06-24T07:44:24;23.90;99.90
15386;DHT22;7791;47.246;9.648;2023-06-24T07:47:06;23.90;99.90
15386;DHT22;7791;47.246;9.648;2023-06-24T07:50:07;23.80;99.90
15386;DHT22;7791;47.246;9.648;2023-06-24T07:52:45;24.10;99.90
15386;DHT22;7791;47.246;9.648;2023-06-24T07:55:27;24.60;99.90
15386;DHT22;7791;47.246;9.648;2023-06-24T07:58:09;25.40;99.90
15386;DHT22;7791;47.246;9.648;2023-06-24T08:00:45;26.20;99.90
15386;DHT22;7791;47.246;9.648;2023-06-24T08:03:26;26.60;99.90
15386;DHT22;7791;47.246;9.648;2023-06-24T08:05:59;26.90;98.90
15386;DHT22;7791;47.246;9.648;2023-06-24T08:08:33;27.50;98.00
15386;DHT22;7791;47.246;9.648;2023-06-24T08:11:13;27.80;98.20
15386;DHT22;7791;47.246;9.648;2023-06-24T08:13:48;27.90;97.70
15386;DHT22;7791;47.246;9.648;2023-06-24T08:16:29;28.30;94.70
15386;DHT22;7791;47.246;9.648;2023-06-24T08:19:18;28.70;94.70
15386;DHT22;7791;47.246;9.648;2023-06-24T08:22:01;27.70;95.70
15386;DHT22;7791;47.246;9.648;2023-06-24T08:24:40;28.60;95.10
15386;DHT22;7791;47.246;9.648;2023-06-24T08:27:19;29.10;93.40
15386;DHT22;7791;47.246;9.648;2023-06-24T08:29:55;29.70;94.30
15386;DHT22;7791;47.246;9.648;2023-06-24T08:33:05;30.60;93.30
15386;DHT22;7791;47.246;9.648;2023-06-24T08:35:35;31.20;90.80
15386;DHT22;7791;47.246;9.648;2023-06-24T08:38:09;30.80;90.30
15386;DHT22;7791;47.246;9.648;2023-06-24T08:40:40;31.20;90.70
15386;DHT22;7791;47.246;9.648;2023-06-24T08:43:27;31.50;87.10
15386;DHT22;7791;47.246;9.648;2023-06-24T08:48:58;31.80;85.20
15386;DHT22;7791;47.246;9.648;2023-06-24T08:51:52;32.00;83.80
15386;DHT22;7791;47.246;9.648;2023-06-24T08:54:47;33.00;83.90
15386;DHT22;7791;47.246;9.648;2023-06-24T08:57:24;33.70;79.00
15386;DHT22;7791;47.246;9.648;2023-06-24T09:03:14;34.00;76.30
15386;DHT22;7791;47.246;9.648;2023-06-24T09:05:56;34.60;73.80
15386;DHT22;7791;47.246;9.648;2023-06-24T09:08:39;33.70;76.40
15386;DHT22;7791;47.246;9.648;2023-06-24T09:14:21;33.40;74.00
15386;DHT22;7791;47.246;9.648;2023-06-24T09:17:05;32.40;77.20
15386;DHT22;7791;47.246;9.648;2023-06-24T09:19:57;31.50;83.20
15386;DHT22;7791;47.246;9.648;2023-06-24T09:22:47;29.50;86.40
15386;DHT22;7791;47.246;9.648;2023-06-24T09:25:26;28.70;89.20
15386;DHT22;7791;47.246;9.648;2023-06-24T09:28:05;27.80;90.80
15386;DHT22;7791;47.246;9.648;2023-06-24T09:30:47;27.60;90.40
15386;DHT22;7791;47.246;9.648;2023-06-24T09:36:16;27.90;90.90
15386;DHT22;7791;47.246;9.648;2023-06-24T09:38:54;28.20;90.60
15386;DHT22;7791;47.246;9.648;2023-06-24T09:41:35;28.50;91.00
15386;DHT22;7791;47.246;9.648;2023-06-24T09:44:16;28.30;90.40
15386;DHT22;7791;47.246;9.648;2023-06-24T09:49:36;29.20;90.10
15386;DHT22;7791;47.246;9.648;2023-06-24T09:52:12;29.20;86.90
15386;DHT22;7791;47.246;9.648;2023-06-24T09:54:57;29.40;85.30
15386;DHT22;7791;47.246;9.648;2023-06-24T09:57:28;29.50;82.70
15386;DHT22;7791;47.246;9.648;2023-06-24T10:00:01;28.70;81.70
15386;DHT22;7791;47.246;9.648;2023-06-24T10:02:42;28.80;84.70
15386;DHT22;7791;47.246;9.648;2023-06-24T10:05:28;28.90;83.30
15386;DHT22;7791;47.246;9.648;2023-06-24T10:08:16;29.00;85.50
15386;DHT22;7791;47.246;9.648;2023-06-24T10:11:03;29.10;86.50
15386;DHT22;7791;47.246;9.648;2023-06-24T10:13:50;29.90;81.70
15386;DHT22;7791;47.246;9.648;2023-06-24T10:16:44;30.80;80.20
15386;DHT22;7791;47.246;9.648;2023-06-24T10:19:21;29.90;83.00
15386;DHT22;7791;47.246;9.648;2023-06-24T10:22:02;29.70;80.10
15386;DHT22;7791;47.246;9.648;2023-06-24T10:24:39;29.40;83.80
15386;DHT22;7791;47.246;9.648;2023-06-24T10:27:27;29.60;85.40
15386;DHT22;7791;47.246;9.648;2023-06-24T10:30:03;29.80;84.00
15386;DHT22;7791;47.246;9.648;2023-06-24T10:32:42;30.30;85.60
15386;DHT22;7791;47.246;9.648;2023-06-24T10:35:28;30.20;84.20
15386;DHT22;7791;47.246;9.648;2023-06-24T10:38:22;29.70;85.10
15386;DHT22;7791;47.246;9.648;2023-06-24T10:40:57;29.80;84.80
15386;DHT22;7791;47.246;9.648;2023-06-24T10:43:38;29.90;84.90
15386;DHT22;7791;47.246;9.648;2023-06-24T10:46:37;29.80;86.00
15386;DHT22;7791;47.246;9.648;2023-06-24T10:49:26;29.70;85.50
15386;DHT22;7791;47.246;9.648;2023-06-24T10:52:18;29.70;84.00
15386;DHT22;7791;47.246;9.648;2023-06-24T10:55:12;30.80;84.10
15386;DHT22;7791;47.246;9.648;2023-06-24T10:57:58;30.40;84.40
15386;DHT22;7791;47.246;9.648;2023-06-24T11:00:45;30.40;81.50
15386;DHT22;7791;47.246;9.648;2023-06-24T11:06:12;29.50;85.20
15386;DHT22;7791;47.246;9.648;2023-06-24T11:08:50;29.00;86.00
15386;DHT22;7791;47.246;9.648;2023-06-24T11:11:28;28.60;85.30
15386;DHT22;7791;47.246;9.648;2023-06-24T11:14:15;28.20;86.10
15386;DHT22;7791;47.246;9.648;2023-06-24T11:16:57;28.70;86.50
15386;DHT22;7791;47.246;9.648;2023-06-24T11:19:42;29.90;82.00
15386;DHT22;7791;47.246;9.648;2023-06-24T11:22:15;29.50;83.50
15386;DHT22;7791;47.246;9.648;2023-06-24T11:25:10;29.60;81.90
15386;DHT22;7791;47.246;9.648;2023-06-24T11:27:44;30.30;82.60
15386;DHT22;7791;47.246;9.648;2023-06-24T11:30:15;30.80;80.40
15386;DHT22;7791;47.246;9.648;2023-06-24T11:32:47;30.60;77.80
15386;DHT22;7791;47.246;9.648;2023-06-24T11:38:35;30.10;76.60
15386;DHT22;7791;47.246;9.648;2023-06-24T11:41:09;30.50;74.20
15386;DHT22;7791;47.246;9.648;2023-06-24T11:43:51;29.80;76.30
15386;DHT22;7791;47.246;9.648;2023-06-24T11:46:31;29.50;77.50
15386;DHT22;7791;47.246;9.648;2023-06-24T11:49:26;30.10;76.40
15386;DHT22;7791;47.246;9.648;2023-06-24T11:52:16;31.20;72.50
15386;DHT22;7791;47.246;9.648;2023-06-24T11:54:55;32.00;75.50
15386;DHT22;7791;47.246;9.648;2023-06-24T11:57:20;31.90;73.70
15386;DHT22;7791;47.246;9.648;2023-06-24T11:59:58;32.00;72.30
15386;DHT22;7791;47.246;9.648;2023-06-24T12:02:32;31.30;72.30
15386;DHT22;7791;47.246;9.648;2023-06-24T12:05:02;32.00;73.90
15386;DHT22;7791;47.246;9.648;2023-06-24T12:07:34;32.70;70.50
15386;DHT22;7791;47.246;9.648;2023-06-24T12:10:04;32.50;68.90
15386;DHT22;7791;47.246;9.648;2023-06-24T12:12:31;32.00;69.70
15386;DHT22;7791;47.246;9.648;2023-06-24T12:15:12;31.70;72.30
15386;DHT22;7791;47.246;9.648;2023-06-24T12:18:07;31.60;69.20
15386;DHT22;7791;47.246;9.648;2023-06-24T12:20:46;31.40;70.20
15386;DHT22;7791;47.246;9.648;2023-06-24T12:23:22;31.50;70.80
15386;DHT22;7791;47.246;9.648;2023-06-24T12:26:04;31.30;71.80
15386;DHT22;7791;47.246;9.648;2023-06-24T12:28:40;31.30;72.40
15386;DHT22;7791;47.246;9.648;2023-06-24T12:31:18;31.30;68.70
15386;DHT22;7791;47.246;9.648;2023-06-24T12:33:48;30.60;71.60
15386;DHT22;7791;47.246;9.648;2023-06-24T12:36:26;30.50;71.40
15386;DHT22;7791;47.246;9.648;2023-06-24T12:39:02;30.70;70.80
15386;DHT22;7791;47.246;9.648;2023-06-24T12:41:38;30.40;70.80
15386;DHT22;7791;47.246;9.648;2023-06-24T12:44:06;30.30;69.80
15386;DHT22;7791;47.246;9.648;2023-06-24T12:46:41;30.40;70.30
15386;DHT22;7791;47.246;9.648;2023-06-24T12:52:18;30.90;69.40
15386;DHT22;7791;47.246;9.648;2023-06-24T12:54:54;31.30;68.50
15386;DHT22;7791;47.246;9.648;2023-06-24T12:57:30;30.50;69.60
15386;DHT22;7791;47.246;9.648;2023-06-24T13:00:03;29.50;68.90
15386;DHT22;7791;47.246;9.648;2023-06-24T13:02:44;29.50;70.80
15386;DHT22;7791;47.246;9.648;2023-06-24T13:05:27;30.10;70.00
15386;DHT22;7791;47.246;9.648;2023-06-24T13:08:11;30.70;68.60
15386;DHT22;7791;47.246;9.648;2023-06-24T13:10:59;30.30;69.70
15386;DHT22;7791;47.246;9.648;2023-06-24T13:13:35;30.30;69.60
15386;DHT22;7791;47.246;9.648;2023-06-24T13:16:14;31.10;70.70
15386;DHT22;7791;47.246;9.648;2023-06-24T13:18:56;30.60;66.00
15386;DHT22;7791;47.246;9.648;2023-06-24T13:21:42;30.20;66.10
15386;DHT22;7791;47.246;9.648;2023-06-24T13:24:17;30.30;66.80
15386;DHT22;7791;47.246;9.648;2023-06-24T13:29:49;30.80;67.40
15386;DHT22;7791;47.246;9.648;2023-06-24T13:32:25;30.50;65.20
15386;DHT22;7791;47.246;9.648;2023-06-24T13:35:06;31.00;68.20
15386;DHT22;7791;47.246;9.648;2023-06-24T13:37:38;31.50;66.40
15386;DHT22;7791;47.246;9.648;2023-06-24T13:40:15;31.50;67.50
15386;DHT22;7791;47.246;9.648;2023-06-24T13:43:09;31.00;64.70
15386;DHT22;7791;47.246;9.648;2023-06-24T13:45:45;30.30;66.70
15386;DHT22;7791;47.246;9.648;2023-06-24T13:48:29;30.10;70.00
15386;DHT22;7791;47.246;9.648;2023-06-24T13:51:02;30.20;68.10
15386;DHT22;7791;47.246;9.648;2023-06-24T13:53:54;30.00;67.10
15386;DHT22;7791;47.246;9.648;2023-06-24T13:56:38;30.50;67.60
15386;DHT22;7791;47.246;9.648;2023-06-24T13:59:28;30.30;66.60
15386;DHT22;7791;47.246;9.648;2023-06-24T14:02:05;30.60;69.10
15386;DHT22;7791;47.246;9.648;2023-06-24T14:04:40;30.10;66.90
15386;DHT22;7791;47.246;9.648;2023-06-24T14:07:12;29.70;68.10
15386;DHT22;7791;47.246;9.648;2023-06-24T14:09:43;29.30;69.30
15386;DHT22;7791;47.246;9.648;2023-06-24T14:15:28;28.90;69.50
15386;DHT22;7791;47.246;9.648;2023-06-24T14:18:20;29.10;70.10
15386;DHT22;7791;47.246;9.648;2023-06-24T14:21:17;29.50;70.30
15386;DHT22;7791;47.246;9.648;2023-06-24T14:24:02;30.00;69.40
15386;DHT22;7791;47.246;9.648;2023-06-24T14:26:43;30.30;67.60
15386;DHT22;7791;47.246;9.648;2023-06-24T14:32:08;30.00;68.30
15386;DHT22;7791;47.246;9.648;2023-06-24T14:34:51;30.40;67.10
15386;DHT22;7791;47.246;9.648;2023-06-24T14:37:32;30.70;68.60
15386;DHT22;7791;47.246;9.648;2023-06-24T14:40:20;30.90;67.90
15386;DHT22;7791;47.246;9.648;2023-06-24T14:43:10;30.00;66.30
15386;DHT22;7791;47.246;9.648;2023-06-24T14:48:31;28.90;69.20
15386;DHT22;7791;47.246;9.648;2023-06-24T14:51:23;29.00;68.20
15386;DHT22;7791;47.246;9.648;2023-06-24T14:54:05;29.00;71.20
15386;DHT22;7791;47.246;9.648;2023-06-24T14:56:52;29.40;68.20
15386;DHT22;7791;47.246;9.648;2023-06-24T14:59:24;29.20;68.10
15386;DHT22;7791;47.246;9.648;2023-06-24T15:01:54;29.10;70.50
15386;DHT22;7791;47.246;9.648;2023-06-24T15:04:37;28.80;69.10
15386;DHT22;7791;47.246;9.648;2023-06-24T15:07:19;28.90;71.10
15386;DHT22;7791;47.246;9.648;2023-06-24T15:12:53;29.80;66.40
15386;DHT22;7791;47.246;9.648;2023-06-24T15:15:27;29.60;66.80
15386;DHT22;7791;47.246;9.648;2023-06-24T15:18:08;29.40;68.30
15386;DHT22;7791;47.246;9.648;2023-06-24T15:21:00;29.10;68.60
15386;DHT22;7791;47.246;9.648;2023-06-24T15:23:43;28.30;68.10
15386;DHT22;7791;47.246;9.648;2023-06-24T15:26:17;28.30;71.40
15386;DHT22;7791;47.246;9.648;2023-06-24T15:28:48;28.30;69.20
15386;DHT22;7791;47.246;9.648;2023-06-24T15:31:42;28.60;70.20
15386;DHT22;7791;47.246;9.648;2023-06-24T15:34:24;28.80;67.30
15386;DHT22;7791;47.246;9.648;2023-06-24T15:39:52;28.60;68.80
15386;DHT22;7791;47.246;9.648;2023-06-24T15:42:25;28.20;68.80
15386;DHT22;7791;47.246;9.648;2023-06-24T15:45:18;28.10;68.60
15386;DHT22;7791;47.246;9.648;2023-06-24T15:47:54;28.20;70.60
15386;DHT22;7791;47.246;9.648;2023-06-24T15:50:29;27.90;69.30
15386;DHT22;7791;47.246;9.648;2023-06-24T15:53:09;27.70;71.60
15386;DHT22;7791;47.246;9.648;2023-06-24T15:56:03;28.00;71.00
15386;DHT22;7791;47.246;9.648;2023-06-24T15:58:47;27.80;70.20
15386;DHT22;7791;47.246;9.648;2023-06-24T16:04:17;27.70;69.80
15386;DHT22;7791;47.246;9.648;2023-06-24T16:06:59;27.90;69.80
15386;DHT22;7791;47.246;9.648;2023-06-24T16:09:59;28.20;70.50
15386;DHT22;7791;47.246;9.648;2023-06-24T16:12:40;28.20;71.90
15386;DHT22;7791;47.246;9.648;2023-06-24T16:18:00;28.50;69.10
15386;DHT22;7791;47.246;9.648;2023-06-24T16:20:26;28.20;70.80
15386;DHT22;7791;47.246;9.648;2023-06-24T16:22:52;28.50;69.90
15386;DHT22;7791;47.246;9.648;2023-06-24T16:25:34;28.50;70.80
15386;DHT22;7791;47.246;9.648;2023-06-24T16:31:07;28.20;69.30
15386;DHT22;7791;47.246;9.648;2023-06-24T16:33:47;27.90;71.70
15386;DHT22;7791;47.246;9.648;2023-06-24T16:36:39;28.10;72.10
15386;DHT22;7791;47.246;9.648;2023-06-24T16:39:21;28.20;69.40
15386;DHT22;7791;47.246;9.648;2023-06-24T16:42:15;27.80;70.60
15386;DHT22;7791;47.246;9.648;2023-06-24T16:45:02;27.60;72.60
15386;DHT22;7791;47.246;9.648;2023-06-24T16:47:41;27.50;72.90
15386;DHT22;7791;47.246;9.648;2023-06-24T16:50:18;27.30;72.50
15386;DHT22;7791;47.246;9.648;2023-06-24T16:52:53;27.40;72.00
15386;DHT22;7791;47.246;9.648;2023-06-24T16:55:41;27.50;73.00
15386;DHT22;7791;47.246;9.648;2023-06-24T17:01:18;27.30;71.70
15386;DHT22;7791;47.246;9.648;2023-06-24T17:03:56;27.20;73.10
15386;DHT22;7791;47.246;9.648;2023-06-24T17:06:41;27.30;72.90
15386;DHT22;7791;47.246;9.648;2023-06-24T17:09:32;27.30;72.50
15386;DHT22;7791;47.246;9.648;2023-06-24T17:14:59;26.80;73.80
15386;DHT22;7791;47.246;9.648;2023-06-24T17:17:45;26.60;73.70
15386;DHT22;7791;47.246;9.648;2023-06-24T17:20:35;26.10;74.10
15386;DHT22;7791;47.246;9.648;2023-06-24T17:23:15;25.90;74.60
15386;DHT22;7791;47.246;9.648;2023-06-24T17:26:02;26.00;75.30
15386;DHT22;7791;47.246;9.648;2023-06-24T17:28:38;25.90;75.60
15386;DHT22;7791;47.246;9.648;2023-06-24T17:31:14;26.00;75.10
15386;DHT22;7791;47.246;9.648;2023-06-24T17:34:03;26.10;75.80
15386;DHT22;7791;47.246;9.648;2023-06-24T17:36:48;26.10;75.30
15386;DHT22;7791;47.246;9.648;2023-06-24T17:39:39;26.20;76.20
15386;DHT22;7791;47.246;9.648;2023-06-24T17:43:19;26.10;76.50
15386;DHT22;7791;47.246;9.648;2023-06-24T17:45:09;26.00;77.10
15386;DHT22;7791;47.246;9.648;2023-06-24T17:47:52;25.70;77.20
15386;DHT22;7791;47.246;9.648;2023-06-24T17:50:33;25.40;76.80
15386;DHT22;7791;47.246;9.648;2023-06-24T17:53:06;25.20;78.20
15386;DHT22;7791;47.246;9.648;2023-06-24T17:55:55;25.00;78.40
15386;DHT22;7791;47.246;9.648;2023-06-24T18:01:12;24.80;79.60
15386;DHT22;7791;47.246;9.648;2023-06-24T18:03:43;24.60;80.60
15386;DHT22;7791;47.246;9.648;2023-06-24T18:06:37;24.60;81.20
15386;DHT22;7791;47.246;9.648;2023-06-24T18:09:24;24.40;80.80
15386;DHT22;7791;47.246;9.648;2023-06-24T18:11:56;24.40;80.60
15386;DHT22;7791;47.246;9.648;2023-06-24T18:14:44;24.30;81.40
15386;DHT22;7791;47.246;9.648;2023-06-24T18:20:29;24.10;82.10
15386;DHT22;7791;47.246;9.648;2023-06-24T18:23:03;23.90;82.60
15386;DHT22;7791;47.246;9.648;2023-06-24T18:28:37;23.80;83.00
15386;DHT22;7791;47.246;9.648;2023-06-24T18:31:24;23.70;81.00
15386;DHT22;7791;47.246;9.648;2023-06-24T18:34:03;23.70;82.70
15386;DHT22;7791;47.246;9.648;2023-06-24T18:36:41;23.60;82.60
15386;DHT22;7791;47.246;9.648;2023-06-24T18:39:21;23.60;85.00
15386;DHT22;7791;47.246;9.648;2023-06-24T18:42:07;23.50;84.30
15386;DHT22;7791;47.246;9.648;2023-06-24T18:47:38;23.30;85.40
15386;DHT22;7791;47.246;9.648;2023-06-24T18:50:07;23.20;87.00
15386;DHT22;7791;47.246;9.648;2023-06-24T18:52:43;22.90;89.00
15386;DHT22;7791;47.246;9.648;2023-06-24T18:55:30;22.70;89.50
15386;DHT22;7791;47.246;9.648;2023-06-24T18:58:28;22.60;90.40
15386;DHT22;7791;47.246;9.648;2023-06-24T19:01:05;22.40;91.40
15386;DHT22;7791;47.246;9.648;2023-06-24T19:03:40;22.30;89.00
15386;DHT22;7791;47.246;9.648;2023-06-24T19:06:33;22.20;91.70
15386;DHT22;7791;47.246;9.648;2023-06-24T19:09:30;22.00;91.40
15386;DHT22;7791;47.246;9.648;2023-06-24T19:12:11;21.70;93.80
15386;DHT22;7791;47.246;9.648;2023-06-24T19:14:41;21.50;94.70
15386;DHT22;7791;47.246;9.648;2023-06-24T19:17:24;21.30;94.50